Time;durP1;ratioP1;P1;durP2;ratioP2;P2;SDS_P1;SDS_P2;PMS_P1;PMS_P2;Temp;Humidity;BMP_temperature;BMP_pressure;BME280_temperature;BME280_humidity;BME280_pressure;Samples;Min_cycle;Max_cycle;Signal;HPM_P1;HPM_P2
2023/06/25 00:00:57;;;;;;;8.30;5.38;;;;;;;;;;5030264;28;20178;-71
2023/06/25 00:03:23;;;;;;;9.00;4.93;;;;;;;;;;5031546;28;20178;-71
2023/06/25 00:05:48;;;;;;;9.05;6.00;;;;;;;;;;5031161;28;20182;-70
2023/06/25 00:08:13;;;;;;;6.13;5.43;;;;;;;;;;5031624;28;20194;-72
2023/06/25 00:10:39;;;;;;;8.57;5.78;;;;;;;;;;5030443;28;20222;-72
2023/06/25 00:13:04;;;;;;;8.30;5.00;;;;;;;;;;5029437;28;20182;-72
2023/06/25 00:15:29;;;;;;;7.00;5.40;;;;;;;;;;5031280;28;20236;-70
2023/06/25 00:17:55;;;;;;;7.25;5.47;;;;;;;;;;5031627;28;20200;-70
2023/06/25 00:20:20;;;;;;;6.03;5.25;;;;;;;;;;5030875;28;20260;-70
2023/06/25 00:22:45;;;;;;;14.57;5.68;;;;;;;;;;5029343;28;20286;-70
2023/06/25 00:25:13;;;;;;;6.93;4.90;;;;;;;;;;5026193;28;20240;-72
2023/06/25 00:27:38;;;;;;;7.43;5.40;;;;;;;;;;5040040;22;20235;-78
2023/06/25 00:30:04;;;;;;;8.05;5.35;;;;;;;;;;5057813;28;20248;-77
2023/06/25 00:32:30;;;;;;;9.88;5.60;;;;;;;;;;5058860;28;20200;-77
2023/06/25 00:34:57;;;;;;;7.50;5.13;;;;;;;;;;5057959;28;20198;-77
2023/06/25 00:37:23;;;;;;;7.38;5.50;;;;;;;;;;5053266;28;20805;-77
2023/06/25 00:39:48;;;;;;;9.95;5.63;;;;;;;;;;5051859;28;20731;-77
2023/06/25 00:42:14;;;;;;;9.07;6.03;;;;;;;;;;5058506;28;20704;-78
2023/06/25 00:44:42;;;;;;;8.40;6.13;;;;;;;;;;5054041;28;20175;-77
2023/06/25 00:47:12;;;;;;;9.02;6.00;;;;;;;;;;5051475;28;20666;-77
2023/06/25 00:49:42;;;;;;;6.68;5.18;;;;;;;;;;5064763;28;20287;-78
2023/06/25 00:52:10;;;;;;;6.90;5.75;;;;;;;;;;5057793;28;20571;-77
2023/06/25 00:54:38;;;;;;;8.57;6.57;;;;;;;;;;5058124;28;20185;-77
2023/06/25 00:57:05;;;;;;;9.73;6.55;;;;;;;;;;5053411;28;20221;-77
2023/06/25 00:59:31;;;;;;;8.40;5.97;;;;;;;;;;5054402;28;20177;-77
2023/06/25 01:02:01;;;;;;;12.43;7.40;;;;;;;;;;5053886;28;20235;-78
2023/06/25 01:04:28;;;;;;;12.25;7.25;;;;;;;;;;5055078;28;20231;-78
2023/06/25 01:06:55;;;;;;;12.27;6.93;;;;;;;;;;5048598;28;20212;-77
2023/06/25 01:09:21;;;;;;;8.73;6.40;;;;;;;;;;5054111;28;20296;-77
2023/06/25 01:11:52;;;;;;;9.40;6.78;;;;;;;;;;5046302;28;20212;-77
2023/06/25 01:14:18;;;;;;;9.73;6.40;;;;;;;;;;5051137;28;20668;-77
2023/06/25 01:16:43;;;;;;;11.80;7.53;;;;;;;;;;5058461;28;20169;-78
2023/06/25 01:19:08;;;;;;;9.43;7.03;;;;;;;;;;5054801;28;20208;-77
2023/06/25 01:21:34;;;;;;;11.93;7.63;;;;;;;;;;5057074;28;20185;-77
2023/06/25 01:23:59;;;;;;;11.30;7.97;;;;;;;;;;5046691;28;20454;-78
2023/06/25 01:26:24;;;;;;;11.27;7.80;;;;;;;;;;5051694;28;20220;-77
2023/06/25 01:28:55;;;;;;;10.90;7.20;;;;;;;;;;5052736;28;20225;-77
2023/06/25 01:31:20;;;;;;;11.07;6.82;;;;;;;;;;5053650;28;20188;-77
2023/06/25 01:33:45;;;;;;;17.00;7.70;;;;;;;;;;5054777;28;20252;-77
2023/06/25 01:36:11;;;;;;;14.95;8.23;;;;;;;;;;5051582;28;20176;-77
2023/06/25 01:38:36;;;;;;;9.60;7.10;;;;;;;;;;5047736;28;20209;-77
2023/06/25 01:41:01;;;;;;;13.48;7.85;;;;;;;;;;5056655;28;20181;-77
2023/06/25 01:43:26;;;;;;;10.25;7.50;;;;;;;;;;5056640;28;20186;-77
2023/06/25 01:45:51;;;;;;;13.88;8.77;;;;;;;;;;5049931;28;20200;-77
2023/06/25 01:48:17;;;;;;;13.32;7.72;;;;;;;;;;5049752;28;20197;-77
2023/06/25 01:50:42;;;;;;;12.15;9.30;;;;;;;;;;5057441;28;20716;-77
2023/06/25 01:53:07;;;;;;;13.23;8.18;;;;;;;;;;5057730;28;20235;-77
2023/06/25 01:55:33;;;;;;;10.68;7.63;;;;;;;;;;5069554;28;20558;-77
2023/06/25 01:57:58;;;;;;;12.73;9.07;;;;;;;;;;5053520;28;20202;-77
2023/06/25 02:00:24;;;;;;;13.65;8.73;;;;;;;;;;5057551;28;20200;-78
2023/06/25 02:02:50;;;;;;;13.27;8.07;;;;;;;;;;5059941;28;20545;-78
2023/06/25 02:05:15;;;;;;;11.55;8.15;;;;;;;;;;5062235;28;20184;-77
2023/06/25 02:07:40;;;;;;;10.32;7.22;;;;;;;;;;5050721;28;20201;-77
2023/06/25 02:10:06;;;;;;;14.68;9.13;;;;;;;;;;5056570;28;20220;-77
2023/06/25 02:12:31;;;;;;;15.57;8.95;;;;;;;;;;5056053;28;20182;-77
2023/06/25 02:14:56;;;;;;;11.82;9.18;;;;;;;;;;5050175;28;20177;-77
2023/06/25 02:17:22;;;;;;;14.35;8.65;;;;;;;;;;5055020;28;20189;-77
2023/06/25 02:19:47;;;;;;;12.75;8.70;;;;;;;;;;5056627;28;20651;-77
2023/06/25 02:22:12;;;;;;;13.30;9.20;;;;;;;;;;5054907;28;20194;-77
2023/06/25 02:24:37;;;;;;;12.48;8.77;;;;;;;;;;5055474;28;20189;-77
2023/06/25 02:27:03;;;;;;;14.75;10.38;;;;;;;;;;5050956;28;20177;-76
2023/06/25 02:29:28;;;;;;;16.50;9.93;;;;;;;;;;5048717;28;20210;-77
2023/06/25 02:31:53;;;;;;;13.90;9.70;;;;;;;;;;5052724;28;20208;-76
2023/06/25 02:34:19;;;;;;;14.57;10.23;;;;;;;;;;5052766;28;20590;-76
2023/06/25 02:36:44;;;;;;;17.08;11.43;;;;;;;;;;5059584;28;20226;-77
2023/06/25 02:39:09;;;;;;;15.70;10.95;;;;;;;;;;5051585;28;20202;-76
2023/06/25 02:41:35;;;;;;;15.20;10.27;;;;;;;;;;5051987;28;20193;-76
2023/06/25 02:44:00;;;;;;;16.33;10.95;;;;;;;;;;5044494;28;20640;-77
2023/06/25 02:46:25;;;;;;;15.65;10.35;;;;;;;;;;5054493;28;20649;-77
2023/06/25 02:48:50;;;;;;;15.70;10.50;;;;;;;;;;5052151;28;20734;-77
2023/06/25 02:51:16;;;;;;;16.90;11.52;;;;;;;;;;5052278;28;20243;-78
2023/06/25 02:53:41;;;;;;;16.38;10.52;;;;;;;;;;5050408;28;20203;-76
2023/06/25 02:56:06;;;;;;;17.50;10.88;;;;;;;;;;5049687;28;20303;-76
2023/06/25 02:58:31;;;;;;;16.90;10.60;;;;;;;;;;5052969;28;20280;-76
2023/06/25 03:00:57;;;;;;;14.65;10.32;;;;;;;;;;5051252;28;20265;-77
2023/06/25 03:03:22;;;;;;;14.68;10.27;;;;;;;;;;5045471;28;20170;-77
2023/06/25 03:05:47;;;;;;;19.13;11.55;;;;;;;;;;5052446;28;20225;-77
2023/06/25 03:08:12;;;;;;;15.07;10.98;;;;;;;;;;5052155;28;20280;-76
2023/06/25 03:10:38;;;;;;;18.05;10.77;;;;;;;;;;5042979;28;20420;-76
2023/06/25 03:13:03;;;;;;;17.85;11.75;;;;;;;;;;5053028;28;20708;-76
2023/06/25 03:15:29;;;;;;;18.67;13.13;;;;;;;;;;5053075;28;20634;-77
2023/06/25 03:17:54;;;;;;;16.63;12.63;;;;;;;;;;5047189;28;20198;-76
2023/06/25 03:20:19;;;;;;;16.20;12.18;;;;;;;;;;5047637;28;20201;-76
2023/06/25 03:22:44;;;;;;;17.23;11.77;;;;;;;;;;5056967;28;20189;-76
2023/06/25 03:25:09;;;;;;;17.13;11.65;;;;;;;;;;5051096;28;20295;-76
2023/06/25 03:27:35;;;;;;;17.58;11.13;;;;;;;;;;5053591;28;20213;-76
2023/06/25 03:30:01;;;;;;;15.23;11.63;;;;;;;;;;5053069;28;20217;-75
2023/06/25 03:32:26;;;;;;;16.95;12.18;;;;;;;;;;5051018;28;20170;-75
2023/06/25 03:34:51;;;;;;;17.67;12.85;;;;;;;;;;5051711;28;20177;-76
2023/06/25 03:37:17;;;;;;;16.75;10.75;;;;;;;;;;5053315;28;20227;-76
2023/06/25 03:39:42;;;;;;;16.50;12.05;;;;;;;;;;5051517;28;20173;-76
2023/06/25 03:42:07;;;;;;;13.00;10.52;;;;;;;;;;5052305;28;20180;-76
2023/06/25 03:44:33;;;;;;;15.70;11.40;;;;;;;;;;5050795;28;20173;-76
2023/06/25 03:46:58;;;;;;;17.48;11.45;;;;;;;;;;5056699;28;20184;-76
2023/06/25 03:49:23;;;;;;;14.38;11.05;;;;;;;;;;5051802;28;20205;-75
2023/06/25 03:51:48;;;;;;;16.98;11.35;;;;;;;;;;5058910;28;20200;-76
2023/06/25 03:54:14;;;;;;;15.50;10.85;;;;;;;;;;5052501;28;20190;-76
2023/06/25 03:56:39;;;;;;;15.93;10.85;;;;;;;;;;5052362;28;20181;-76
2023/06/25 03:59:04;;;;;;;17.85;11.00;;;;;;;;;;5055935;28;20228;-76
2023/06/25 04:01:29;;;;;;;14.27;10.93;;;;;;;;;;5049098;28;20188;-77
2023/06/25 04:03:55;;;;;;;15.52;11.02;;;;;;;;;;5050024;28;20189;-77
2023/06/25 04:06:20;;;;;;;17.80;12.55;;;;;;;;;;5048814;28;20186;-77
2023/06/25 04:08:45;;;;;;;13.70;10.25;;;;;;;;;;5052490;28;20220;-77
2023/06/25 04:11:11;;;;;;;14.95;10.60;;;;;;;;;;5052734;28;20553;-77
2023/06/25 04:13:36;;;;;;;14.75;10.50;;;;;;;;;;5051501;28;20657;-77
2023/06/25 04:16:01;;;;;;;14.82;11.13;;;;;;;;;;5069192;28;20227;-77
2023/06/25 04:18:26;;;;;;;17.15;11.02;;;;;;;;;;5050923;28;20679;-76
2023/06/25 04:20:51;;;;;;;13.57;10.25;;;;;;;;;;5053264;28;20711;-77
2023/06/25 04:23:17;;;;;;;15.13;10.57;;;;;;;;;;5049135;28;20182;-76
2023/06/25 04:25:43;;;;;;;16.30;11.20;;;;;;;;;;5046841;28;20185;-76
2023/06/25 04:28:18;;;;;;;12.82;10.48;;;;;;;;;;5052532;28;20861;-76
2023/06/25 04:30:43;;;;;;;16.40;10.38;;;;;;;;;;5061539;28;20205;-76
2023/06/25 04:33:08;;;;;;;12.98;9.88;;;;;;;;;;5054286;28;20165;-76
2023/06/25 04:35:34;;;;;;;12.52;9.70;;;;;;;;;;5052712;28;20241;-76
2023/06/25 04:37:59;;;;;;;13.77;10.52;;;;;;;;;;5054257;28;20196;-76
2023/06/25 04:40:24;;;;;;;14.80;10.05;;;;;;;;;;5049420;28;20182;-76
2023/06/25 04:42:50;;;;;;;12.90;9.90;;;;;;;;;;5058293;28;20177;-76
2023/06/25 04:45:15;;;;;;;14.27;9.75;;;;;;;;;;5051773;28;20182;-77
2023/06/25 04:47:40;;;;;;;12.20;9.80;;;;;;;;;;5054099;28;20375;-77
2023/06/25 04:50:06;;;;;;;10.77;8.48;;;;;;;;;;5051247;28;20209;-76
2023/06/25 04:52:31;;;;;;;12.40;9.02;;;;;;;;;;5056855;28;20671;-76
2023/06/25 04:54:56;;;;;;;11.90;9.65;;;;;;;;;;5052939;28;20173;-76
2023/06/25 04:57:21;;;;;;;10.32;8.57;;;;;;;;;;5053277;28;20690;-77
2023/06/25 04:59:46;;;;;;;12.30;8.35;;;;;;;;;;5048637;28;20264;-77
2023/06/25 05:02:12;;;;;;;11.23;8.00;;;;;;;;;;5051214;28;20272;-76
2023/06/25 05:04:37;;;;;;;12.68;9.82;;;;;;;;;;5055294;28;20663;-76
2023/06/25 05:07:02;;;;;;;12.27;10.05;;;;;;;;;;5052647;28;20184;-77
2023/06/25 05:09:27;;;;;;;12.48;9.93;;;;;;;;;;5050166;28;20293;-76
2023/06/25 05:11:53;;;;;;;11.90;9.40;;;;;;;;;;5048968;28;20178;-76
2023/06/25 05:14:18;;;;;;;11.75;9.43;;;;;;;;;;5050511;28;20166;-76
2023/06/25 05:16:43;;;;;;;11.75;9.77;;;;;;;;;;5046470;28;20173;-76
2023/06/25 05:19:08;;;;;;;12.18;9.95;;;;;;;;;;5049833;28;20197;-77
2023/06/25 05:21:34;;;;;;;13.43;9.77;;;;;;;;;;5049214;28;20194;-76
2023/06/25 05:24:00;;;;;;;11.73;9.27;;;;;;;;;;5051664;28;20186;-76
2023/06/25 05:26:26;;;;;;;12.77;9.18;;;;;;;;;;5052883;28;20723;-76
2023/06/25 05:28:51;;;;;;;14.07;9.93;;;;;;;;;;5053650;28;20299;-77
2023/06/25 05:31:16;;;;;;;13.30;9.40;;;;;;;;;;5049568;28;20179;-76
2023/06/25 05:33:41;;;;;;;15.90;10.43;;;;;;;;;;5056618;28;20173;-77
2023/06/25 05:36:07;;;;;;;11.38;9.35;;;;;;;;;;5064841;28;20166;-76
2023/06/25 05:38:32;;;;;;;12.85;10.27;;;;;;;;;;5055458;28;20207;-75
2023/06/25 05:40:57;;;;;;;13.32;9.20;;;;;;;;;;5053279;28;20186;-76
2023/06/25 05:43:22;;;;;;;15.52;10.00;;;;;;;;;;5057352;28;20184;-76
2023/06/25 05:45:47;;;;;;;13.30;9.45;;;;;;;;;;5055776;28;20178;-78
2023/06/25 05:48:13;;;;;;;11.65;9.02;;;;;;;;;;5054180;28;20194;-78
2023/06/25 05:50:38;;;;;;;13.70;10.20;;;;;;;;;;5055383;28;20202;-79
2023/06/25 05:53:04;;;;;;;10.50;8.57;;;;;;;;;;5060414;28;20607;-77
2023/06/25 05:55:29;;;;;;;12.32;9.68;;;;;;;;;;5067067;28;20216;-78
2023/06/25 05:57:54;;;;;;;11.13;9.13;;;;;;;;;;5063277;28;20213;-77
2023/06/25 06:00:21;;;;;;;10.13;8.70;;;;;;;;;;5053646;28;20205;-77
2023/06/25 06:02:46;;;;;;;13.02;9.27;;;;;;;;;;5048613;28;20521;-76
2023/06/25 06:05:11;;;;;;;13.77;9.68;;;;;;;;;;5061264;28;20380;-77
2023/06/25 06:07:37;;;;;;;14.15;9.15;;;;;;;;;;5046600;28;20230;-77
2023/06/25 06:10:02;;;;;;;11.02;8.18;;;;;;;;;;5066511;28;20283;-76
2023/06/25 06:12:27;;;;;;;13.27;9.15;;;;;;;;;;5053328;28;20316;-77
2023/06/25 06:14:53;;;;;;;11.15;8.45;;;;;;;;;;5053569;28;20288;-77
2023/06/25 06:17:18;;;;;;;11.63;9.15;;;;;;;;;;5054551;28;20160;-76
2023/06/25 06:19:43;;;;;;;12.68;9.05;;;;;;;;;;5046252;28;20685;-77
2023/06/25 06:22:08;;;;;;;12.18;7.75;;;;;;;;;;5054511;28;20706;-77
2023/06/25 06:24:33;;;;;;;11.65;8.38;;;;;;;;;;5056402;28;20189;-78
2023/06/25 06:26:59;;;;;;;8.38;6.80;;;;;;;;;;5059372;28;20530;-77
2023/06/25 06:29:24;;;;;;;11.05;8.30;;;;;;;;;;5075386;22;20230;-70
2023/06/25 06:31:49;;;;;;;10.38;7.80;;;;;;;;;;5067824;28;20592;-70
2023/06/25 06:34:14;;;;;;;10.20;7.90;;;;;;;;;;5063123;28;20260;-70
2023/06/25 06:36:40;;;;;;;11.98;9.18;;;;;;;;;;5065140;28;20410;-70
2023/06/25 06:39:05;;;;;;;11.15;8.60;;;;;;;;;;5067087;28;20205;-70
2023/06/25 06:41:30;;;;;;;12.90;8.73;;;;;;;;;;5071591;28;20183;-70
2023/06/25 06:44:09;;;;;;;12.50;8.45;;;;;;;;;;5066551;28;20218;-70
2023/06/25 06:46:34;;;;;;;9.77;8.18;;;;;;;;;;5069192;28;20603;-70
2023/06/25 06:49:00;;;;;;;15.03;7.30;;;;;;;;;;5063682;28;20283;-70
2023/06/25 06:51:25;;;;;;;11.48;8.13;;;;;;;;;;5067580;28;20458;-70
2023/06/25 06:53:50;;;;;;;11.20;7.67;;;;;;;;;;5067102;28;20673;-70
2023/06/25 06:56:15;;;;;;;10.90;7.90;;;;;;;;;;5071425;28;20456;-70
2023/06/25 06:58:40;;;;;;;14.07;8.30;;;;;;;;;;5062730;28;20974;-70
2023/06/25 07:01:06;;;;;;;9.87;7.90;;;;;;;;;;5063028;28;20639;-70
2023/06/25 07:03:31;;;;;;;10.40;7.07;;;;;;;;;;5061297;28;20429;-70
2023/06/25 07:05:56;;;;;;;11.00;7.47;;;;;;;;;;5063598;28;20487;-70
2023/06/25 07:08:21;;;;;;;11.33;6.53;;;;;;;;;;5064571;28;20488;-70
2023/06/25 07:10:46;;;;;;;11.30;6.93;;;;;;;;;;5060841;28;20516;-70
2023/06/25 07:13:12;;;;;;;9.00;6.85;;;;;;;;;;5063487;28;21362;-70
2023/06/25 07:15:37;;;;;;;9.95;7.07;;;;;;;;;;5069385;28;20184;-70
2023/06/25 07:18:02;;;;;;;10.35;7.35;;;;;;;;;;5069680;28;20207;-70
2023/06/25 07:20:27;;;;;;;12.43;6.82;;;;;;;;;;5064759;28;20658;-70
2023/06/25 07:22:52;;;;;;;9.30;7.30;;;;;;;;;;5059381;28;20219;-70
2023/06/25 07:25:18;;;;;;;10.30;7.57;;;;;;;;;;5062906;28;20814;-70
2023/06/25 07:27:43;;;;;;;12.00;7.70;;;;;;;;;;5063618;28;20927;-71
2023/06/25 07:30:08;;;;;;;10.03;6.23;;;;;;;;;;5067128;28;20581;-70
2023/06/25 07:32:33;;;;;;;11.82;6.90;;;;;;;;;;5058474;28;20935;-70
2023/06/25 07:34:59;;;;;;;8.55;5.82;;;;;;;;;;5053636;28;20181;-70
2023/06/25 07:37:24;;;;;;;8.50;6.57;;;;;;;;;;5062350;28;20176;-71
2023/06/25 07:39:49;;;;;;;9.32;7.35;;;;;;;;;;5066687;28;20533;-70
2023/06/25 07:42:14;;;;;;;12.90;7.30;;;;;;;;;;5058466;28;20193;-71
2023/06/25 07:44:39;;;;;;;9.73;6.03;;;;;;;;;;5062084;28;20445;-71
2023/06/25 07:47:05;;;;;;;8.60;5.87;;;;;;;;;;5063840;28;20449;-71
2023/06/25 07:49:30;;;;;;;9.02;6.53;;;;;;;;;;5068347;28;20460;-71
2023/06/25 07:51:55;;;;;;;9.03;6.03;;;;;;;;;;5061582;28;20185;-72
2023/06/25 07:54:21;;;;;;;6.97;5.68;;;;;;;;;;5060331;28;20432;-71
2023/06/25 07:56:46;;;;;;;9.48;6.03;;;;;;;;;;5062334;28;20270;-71
2023/06/25 07:59:15;;;;;;;9.77;6.40;;;;;;;;;;5066552;28;20564;-71
2023/06/25 08:01:40;;;;;;;7.93;6.20;;;;;;;;;;5064484;28;20320;-72
2023/06/25 08:04:06;;;;;;;9.40;6.45;;;;;;;;;;5055193;28;20263;-71
2023/06/25 08:06:31;;;;;;;10.15;6.50;;;;;;;;;;5063915;28;20257;-71
2023/06/25 08:08:56;;;;;;;6.97;5.38;;;;;;;;;;5063406;28;20289;-72
2023/06/25 08:11:21;;;;;;;8.63;5.87;;;;;;;;;;5064187;28;20266;-71
2023/06/25 08:13:46;;;;;;;7.53;5.57;;;;;;;;;;5062496;28;20429;-72
2023/06/25 08:16:12;;;;;;;8.55;6.15;;;;;;;;;;5061360;28;20440;-72
2023/06/25 08:18:37;;;;;;;10.75;6.57;;;;;;;;;;5060352;28;20202;-71
2023/06/25 08:21:02;;;;;;;9.13;5.03;;;;;;;;;;5058941;28;20178;-72
2023/06/25 08:23:27;;;;;;;7.63;5.40;;;;;;;;;;5065631;28;20422;-71
2023/06/25 08:25:56;;;;;;;7.25;4.82;;;;;;;;;;5064719;28;20479;-72
2023/06/25 08:28:21;;;;;;;6.00;5.18;;;;;;;;;;5063523;28;20236;-72
2023/06/25 08:30:46;;;;;;;12.02;6.15;;;;;;;;;;5064099;28;20235;-72
2023/06/25 08:33:11;;;;;;;6.10;5.00;;;;;;;;;;5063095;28;20653;-71
2023/06/25 08:35:37;;;;;;;6.47;4.27;;;;;;;;;;5064822;28;20820;-71
2023/06/25 08:38:02;;;;;;;8.15;5.10;;;;;;;;;;5068686;28;20434;-72
2023/06/25 08:40:29;;;;;;;6.23;4.80;;;;;;;;;;5063797;28;20183;-72
2023/06/25 08:42:54;;;;;;;7.32;4.60;;;;;;;;;;5064125;28;20496;-77
2023/06/25 08:45:20;;;;;;;7.10;5.38;;;;;;;;;;5073255;28;20200;-79
2023/06/25 08:47:47;;;;;;;7.18;4.30;;;;;;;;;;5066712;28;20747;-79
2023/06/25 08:50:13;;;;;;;5.22;3.95;;;;;;;;;;5069406;28;20190;-78
2023/06/25 08:52:38;;;;;;;5.27;4.20;;;;;;;;;;5060064;28;20169;-77
2023/06/25 08:55:07;;;;;;;4.35;3.13;;;;;;;;;;5063238;28;20484;-77
2023/06/25 08:57:32;;;;;;;4.45;3.80;;;;;;;;;;5066052;28;20314;-76
2023/06/25 08:59:58;;;;;;;4.47;3.50;;;;;;;;;;5060020;28;20204;-77
2023/06/25 09:02:23;;;;;;;5.43;3.57;;;;;;;;;;5065665;28;20176;-77
2023/06/25 09:04:48;;;;;;;6.43;4.07;;;;;;;;;;5066370;28;20176;-78
2023/06/25 09:07:19;;;;;;;4.60;3.53;;;;;;;;;;5071599;28;20425;-77
2023/06/25 09:09:44;;;;;;;4.57;3.40;;;;;;;;;;5072642;28;20202;-78
2023/06/25 09:12:10;;;;;;;6.03;4.10;;;;;;;;;;5072942;28;20168;-78
2023/06/25 09:14:35;;;;;;;5.22;3.70;;;;;;;;;;5068876;28;20429;-77
2023/06/25 09:17:01;;;;;;;5.50;4.10;;;;;;;;;;5067353;28;20634;-76
2023/06/25 09:19:26;;;;;;;4.90;3.67;;;;;;;;;;5072099;28;20211;-78
2023/06/25 09:21:52;;;;;;;5.20;3.70;;;;;;;;;;5069215;28;20641;-78
2023/06/25 09:24:18;;;;;;;6.68;4.03;;;;;;;;;;5072848;28;20207;-78
2023/06/25 09:26:53;;;;;;;5.40;3.85;;;;;;;;;;5070436;28;20202;-76
2023/06/25 09:29:19;;;;;;;5.80;4.47;;;;;;;;;;5065020;28;20588;-78
2023/06/25 09:31:45;;;;;;;7.50;4.97;;;;;;;;;;5066760;28;20173;-79
2023/06/25 09:34:10;;;;;;;4.82;3.78;;;;;;;;;;5063928;28;20173;-78
2023/06/25 09:36:35;;;;;;;4.47;3.67;;;;;;;;;;5069660;28;20181;-78
2023/06/25 09:39:02;;;;;;;5.07;4.37;;;;;;;;;;5071063;28;20201;-77
2023/06/25 09:41:28;;;;;;;7.85;5.47;;;;;;;;;;5066026;28;20187;-77
2023/06/25 09:43:55;;;;;;;6.75;5.40;;;;;;;;;;5067349;28;20181;-76
2023/06/25 09:46:21;;;;;;;6.30;4.90;;;;;;;;;;5067807;28;20263;-76
2023/06/25 09:48:47;;;;;;;5.88;4.10;;;;;;;;;;5066709;28;20625;-77
2023/06/25 09:51:14;;;;;;;7.20;5.57;;;;;;;;;;5071899;28;20265;-78
2023/06/25 09:53:42;;;;;;;8.43;5.68;;;;;;;;;;5070596;28;20349;-77
2023/06/25 09:56:08;;;;;;;5.55;4.53;;;;;;;;;;5069581;28;20195;-76
2023/06/25 09:58:34;;;;;;;7.38;6.20;;;;;;;;;;5070974;28;20576;-77
2023/06/25 10:00:59;;;;;;;8.75;5.95;;;;;;;;;;5068000;28;20293;-75
2023/06/25 10:03:25;;;;;;;6.35;4.97;;;;;;;;;;5069554;28;20172;-76
2023/06/25 10:05:51;;;;;;;8.02;5.80;;;;;;;;;;5069705;28;20238;-76
2023/06/25 10:08:18;;;;;;;6.95;5.50;;;;;;;;;;5070078;28;20751;-76
2023/06/25 10:10:54;;;;;;;6.93;5.25;;;;;;;;;;5068710;28;20195;-77
2023/06/25 10:13:21;;;;;;;6.10;4.78;;;;;;;;;;5066525;28;20172;-76
2023/06/25 10:15:46;;;;;;;6.38;4.60;;;;;;;;;;5073602;28;20252;-77
2023/06/25 10:18:11;;;;;;;6.35;5.40;;;;;;;;;;5068124;28;20200;-77
2023/06/25 10:20:37;;;;;;;6.83;5.00;;;;;;;;;;5074956;28;20184;-78
2023/06/25 10:23:12;;;;;;;5.78;5.18;;;;;;;;;;5068075;28;20421;-78
2023/06/25 10:25:41;;;;;;;5.28;4.38;;;;;;;;;;5063710;28;20180;-78
2023/06/25 10:28:11;;;;;;;4.75;3.85;;;;;;;;;;5069887;28;20669;-80
2023/06/25 10:30:41;;;;;;;6.75;4.50;;;;;;;;;;5076669;28;20210;-78
2023/06/25 10:33:06;;;;;;;8.52;5.35;;;;;;;;;;5071704;28;20355;-78
2023/06/25 10:35:35;;;;;;;5.47;4.32;;;;;;;;;;5068102;28;20168;-77
2023/06/25 10:38:00;;;;;;;5.32;3.72;;;;;;;;;;5074383;28;20219;-77
2023/06/25 10:40:31;;;;;;;7.55;5.70;;;;;;;;;;5062033;28;20176;-79
2023/06/25 10:42:56;;;;;;;4.85;3.90;;;;;;;;;;5065149;28;20242;-79
2023/06/25 10:45:22;;;;;;;4.93;3.70;;;;;;;;;;5068230;28;20180;-79
2023/06/25 10:47:47;;;;;;;4.13;3.67;;;;;;;;;;5076250;28;20444;-77
2023/06/25 10:50:16;;;;;;;3.63;2.83;;;;;;;;;;5076348;28;20467;-79
2023/06/25 10:52:42;;;;;;;4.78;3.58;;;;;;;;;;5080970;28;20179;-79
2023/06/25 10:55:07;;;;;;;4.05;3.50;;;;;;;;;;5071506;28;20175;-78
2023/06/25 10:57:32;;;;;;;3.80;3.47;;;;;;;;;;5066811;28;20237;-78
2023/06/25 10:59:58;;;;;;;5.40;3.13;;;;;;;;;;5063992;28;20566;-79
2023/06/25 11:02:25;;;;;;;3.33;3.03;;;;;;;;;;5071156;28;20172;-79
2023/06/25 11:04:54;;;;;;;4.40;3.42;;;;;;;;;;5072625;28;20183;-78
2023/06/25 11:07:20;;;;;;;3.60;2.97;;;;;;;;;;5057143;28;20210;-79
2023/06/25 11:09:50;;;;;;;3.80;2.85;;;;;;;;;;5067830;28;20291;-78
2023/06/25 11:12:15;;;;;;;4.32;3.08;;;;;;;;;;5065257;28;20222;-79
2023/06/25 11:14:41;;;;;;;3.20;2.90;;;;;;;;;;5070415;28;20191;-78
2023/06/25 11:17:06;;;;;;;4.43;3.33;;;;;;;;;;5065016;28;20168;-76
2023/06/25 11:19:31;;;;;;;4.45;3.65;;;;;;;;;;5061101;28;20250;-78
2023/06/25 11:21:56;;;;;;;3.60;2.97;;;;;;;;;;5069482;28;20171;-78
2023/06/25 11:24:22;;;;;;;4.50;3.03;;;;;;;;;;5061544;28;20300;-78
2023/06/25 11:26:47;;;;;;;3.60;3.03;;;;;;;;;;5064269;28;20202;-77
2023/06/25 11:29:12;;;;;;;5.30;3.57;;;;;;;;;;5060699;28;20205;-77
2023/06/25 11:31:44;;;;;;;4.57;3.57;;;;;;;;;;5058813;28;20180;-76
2023/06/25 11:34:30;;;;;;;4.20;2.75;;;;;;;;;;5059595;28;20723;-77
2023/06/25 11:36:56;;;;;;;4.00;3.30;;;;;;;;;;5069233;28;20192;-78
2023/06/25 11:39:21;;;;;;;4.22;3.45;;;;;;;;;;5081254;28;20200;-79
2023/06/25 11:41:46;;;;;;;3.13;2.67;;;;;;;;;;5069080;28;20207;-77
2023/06/25 11:44:30;;;;;;;4.27;2.93;;;;;;;;;;5069975;28;20553;-78
2023/06/25 11:47:02;;;;;;;6.00;3.45;;;;;;;;;;5041587;28;20565;-76
2023/06/25 11:49:28;;;;;;;4.55;3.38;;;;;;;;;;5032048;28;20762;-76
2023/06/25 11:51:53;;;;;;;3.67;3.30;;;;;;;;;;5028386;28;20675;-76
2023/06/25 11:54:18;;;;;;;3.15;2.63;;;;;;;;;;5026625;28;20415;-76
2023/06/25 11:56:43;;;;;;;4.30;3.00;;;;;;;;;;5023544;28;20193;-75
2023/06/25 11:59:09;;;;;;;3.43;2.93;;;;;;;;;;5045612;22;20294;-77
2023/06/25 12:01:34;;;;;;;4.33;3.20;;;;;;;;;;4996409;28;20403;-81
2023/06/25 12:03:59;;;;;;;4.20;2.90;;;;;;;;;;4998987;28;20431;-81
2023/06/25 12:06:25;;;;;;;5.47;3.03;;;;;;;;;;4996301;28;20461;-76
2023/06/25 12:08:50;;;;;;;3.88;3.17;;;;;;;;;;4993904;28;21449;-83
2023/06/25 12:11:16;;;;;;;5.35;3.50;;;;;;;;;;5001901;28;20179;-81
2023/06/25 12:13:41;;;;;;;4.28;3.50;;;;;;;;;;4996324;28;20175;-82
2023/06/25 12:16:06;;;;;;;3.45;2.88;;;;;;;;;;4996910;28;20226;-82
2023/06/25 12:18:31;;;;;;;5.07;3.23;;;;;;;;;;4994028;28;20203;-81
2023/06/25 12:20:56;;;;;;;5.10;3.70;;;;;;;;;;4993185;28;20461;-81
2023/06/25 12:23:22;;;;;;;4.90;3.53;;;;;;;;;;4994528;28;20444;-80
2023/06/25 12:25:47;;;;;;;6.25;3.15;;;;;;;;;;4994546;28;20214;-82
2023/06/25 12:28:12;;;;;;;4.38;3.38;;;;;;;;;;4995382;28;22397;-81
2023/06/25 12:30:37;;;;;;;6.05;3.30;;;;;;;;;;4997599;28;20249;-81
2023/06/25 12:33:03;;;;;;;4.43;3.13;;;;;;;;;;4998741;28;20175;-82
2023/06/25 12:35:28;;;;;;;6.28;3.15;;;;;;;;;;4996249;28;20803;-81
2023/06/25 12:37:53;;;;;;;3.90;2.90;;;;;;;;;;5014305;28;20206;-82
2023/06/25 12:40:19;;;;;;;10.82;3.33;;;;;;;;;;4997129;28;20191;-81
2023/06/25 12:42:44;;;;;;;4.60;3.40;;;;;;;;;;4993324;28;20183;-81
2023/06/25 12:45:09;;;;;;;4.60;3.53;;;;;;;;;;4993673;28;21193;-81
2023/06/25 12:47:35;;;;;;;4.57;3.15;;;;;;;;;;5001769;28;20186;-81
2023/06/25 12:50:00;;;;;;;3.45;2.97;;;;;;;;;;4995808;28;20183;-81
2023/06/25 12:52:27;;;;;;;4.47;3.35;;;;;;;;;;5000740;28;20195;-79
2023/06/25 12:54:52;;;;;;;3.92;3.40;;;;;;;;;;4997604;28;20207;-84
2023/06/25 12:57:17;;;;;;;3.50;3.20;;;;;;;;;;4991348;28;20180;-80
2023/06/25 12:59:43;;;;;;;11.23;3.13;;;;;;;;;;4983963;28;20515;-80
2023/06/25 13:02:08;;;;;;;4.65;2.97;;;;;;;;;;4986327;28;20418;-81
2023/06/25 13:04:33;;;;;;;4.05;3.08;;;;;;;;;;4985678;28;20278;-79
2023/06/25 13:06:58;;;;;;;4.73;3.13;;;;;;;;;;4980831;28;20218;-81
2023/06/25 13:09:24;;;;;;;4.07;3.47;;;;;;;;;;4988095;28;20417;-82
2023/06/25 13:11:49;;;;;;;3.20;2.73;;;;;;;;;;4986975;28;20590;-82
2023/06/25 13:14:14;;;;;;;4.17;2.97;;;;;;;;;;4989442;28;20447;-83
2023/06/25 13:16:39;;;;;;;3.55;3.25;;;;;;;;;;4983010;28;20508;-83
2023/06/25 13:19:05;;;;;;;5.47;3.57;;;;;;;;;;4985053;28;20200;-83
2023/06/25 13:21:30;;;;;;;4.90;3.27;;;;;;;;;;4980127;28;20176;-82
2023/06/25 13:23:55;;;;;;;3.57;3.17;;;;;;;;;;4987761;28;20428;-77
2023/06/25 13:26:21;;;;;;;3.55;3.00;;;;;;;;;;5003037;28;20460;-76
2023/06/25 13:28:46;;;;;;;6.27;3.53;;;;;;;;;;4987178;28;20255;-81
2023/06/25 13:31:11;;;;;;;4.05;3.28;;;;;;;;;;4997678;28;20954;-81
2023/06/25 13:33:36;;;;;;;3.67;3.37;;;;;;;;;;4984733;28;20263;-79
2023/06/25 13:36:02;;;;;;;4.20;3.10;;;;;;;;;;4986581;28;20435;-82
2023/06/25 13:38:27;;;;;;;3.80;3.00;;;;;;;;;;4987256;28;21652;-81
2023/06/25 13:40:52;;;;;;;3.45;3.10;;;;;;;;;;4986345;28;20190;-83
2023/06/25 13:43:17;;;;;;;3.73;3.33;;;;;;;;;;4995238;28;20182;-81
2023/06/25 13:45:42;;;;;;;5.30;3.17;;;;;;;;;;4987843;28;20480;-82
2023/06/25 13:48:09;;;;;;;4.27;3.57;;;;;;;;;;4988677;28;20229;-76
2023/06/25 13:50:34;;;;;;;5.22;3.08;;;;;;;;;;4985738;28;20180;-82
2023/06/25 13:52:59;;;;;;;3.78;3.00;;;;;;;;;;4993143;28;20591;-84
2023/06/25 13:55:24;;;;;;;3.50;3.20;;;;;;;;;;4986734;28;20231;-80
2023/06/25 13:57:50;;;;;;;4.57;3.23;;;;;;;;;;4994236;28;20725;-80
2023/06/25 14:00:15;;;;;;;4.00;3.20;;;;;;;;;;4983932;28;20191;-80
2023/06/25 14:02:44;;;;;;;4.38;3.17;;;;;;;;;;4976468;28;20464;-78
2023/06/25 14:05:09;;;;;;;4.35;3.40;;;;;;;;;;4991354;28;20213;-84
2023/06/25 14:07:35;;;;;;;4.80;3.22;;;;;;;;;;4986323;28;20264;-82
2023/06/25 14:10:00;;;;;;;4.10;3.47;;;;;;;;;;4987330;28;20183;-83
2023/06/25 14:12:26;;;;;;;3.87;3.57;;;;;;;;;;4989010;28;20429;-82
2023/06/25 14:14:51;;;;;;;4.18;3.05;;;;;;;;;;4987681;28;20433;-82
2023/06/25 14:17:16;;;;;;;3.80;3.40;;;;;;;;;;4991092;28;20194;-83
2023/06/25 14:19:41;;;;;;;5.90;3.33;;;;;;;;;;4984464;28;20446;-79
2023/06/25 14:22:06;;;;;;;4.30;3.13;;;;;;;;;;4986156;28;20410;-80
2023/06/25 14:24:32;;;;;;;5.23;3.57;;;;;;;;;;4991493;28;20417;-76
2023/06/25 14:26:57;;;;;;;3.40;3.10;;;;;;;;;;4990186;28;20203;-84